sensor_id;sensor_type;location;lat;lon;timestamp;pressure;altitude;pressure_sealevel;temperature;humidity
8398;BME280;4236;54.504;9.588;2022-12-15T00:02:23;100173.16;;;-4.88;100.00
8398;BME280;4236;54.504;9.588;2022-12-15T00:05:09;100168.53;;;-4.96;100.00
8398;BME280;4236;54.504;9.588;2022-12-15T00:07:54;100162.72;;;-4.99;100.00
8398;BME280;4236;54.504;9.588;2022-12-15T00:10:40;100165.53;;;-5.03;100.00
8398;BME280;4236;54.504;9.588;2022-12-15T00:13:25;100162.09;;;-5.03;100.00
8398;BME280;4236;54.504;9.588;2022-12-15T00:16:12;100163.16;;;-5.06;100.00
8398;BME280;4236;54.504;9.588;2022-12-15T00:18:57;100174.63;;;-5.08;100.00
8398;BME280;4236;54.504;9.588;2022-12-15T00:21:42;100170.44;;;-5.11;100.00
8398;BME280;4236;54.504;9.588;2022-12-15T00:24:28;100172.22;;;-5.11;100.00
8398;BME280;4236;54.504;9.588;2022-12-15T00:27:15;100168.81;;;-5.12;100.00
8398;BME280;4236;54.504;9.588;2022-12-15T00:30:00;100174.84;;;-5.11;100.00
8398;BME280;4236;54.504;9.588;2022-12-15T00:32:47;100179.69;;;-5.07;100.00
8398;BME280;4236;54.504;9.588;2022-12-15T00:35:32;100177.56;;;-5.02;100.00
8398;BME280;4236;54.504;9.588;2022-12-15T00:38:17;100171.22;;;-4.97;100.00
8398;BME280;4236;54.504;9.588;2022-12-15T00:41:03;100184.00;;;-4.94;100.00
8398;BME280;4236;54.504;9.588;2022-12-15T00:43:33;100174.31;;;-4.92;100.00
8398;BME280;4236;54.504;9.588;2022-12-15T00:46:02;100170.91;;;-4.93;100.00
8398;BME280;4236;54.504;9.588;2022-12-15T00:48:49;100166.72;;;-4.95;100.00
8398;BME280;4236;54.504;9.588;2022-12-15T00:51:17;100167.91;;;-4.99;100.00
8398;BME280;4236;54.504;9.588;2022-12-15T00:53:45;100165.53;;;-5.03;100.00
8398;BME280;4236;54.504;9.588;2022-12-15T00:56:30;100173.78;;;-5.09;100.00
8398;BME280;4236;54.504;9.588;2022-12-15T00:59:16;100172.22;;;-5.11;100.00
8398;BME280;4236;54.504;9.588;2022-12-15T01:02:01;100168.31;;;-5.17;100.00
8398;BME280;4236;54.504;9.588;2022-12-15T01:04:49;100167.78;;;-5.22;100.00
8398;BME280;4236;54.504;9.588;2022-12-15T01:07:34;100167.31;;;-5.27;100.00
8398;BME280;4236;54.504;9.588;2022-12-15T01:10:19;100173.56;;;-5.29;100.00
8398;BME280;4236;54.504;9.588;2022-12-15T01:13:05;100175.19;;;-5.28;100.00
8398;BME280;4236;54.504;9.588;2022-12-15T01:15:50;100182.91;;;-5.27;100.00
8398;BME280;4236;54.504;9.588;2022-12-15T01:18:36;100176.03;;;-5.28;100.00
8398;BME280;4236;54.504;9.588;2022-12-15T01:21:22;100177.69;;;-5.27;100.00
8398;BME280;4236;54.504;9.588;2022-12-15T01:23:51;100180.19;;;-5.25;100.00
8398;BME280;4236;54.504;9.588;2022-12-15T01:26:19;100169.56;;;-5.22;100.00
8398;BME280;4236;54.504;9.588;2022-12-15T01:28:46;100173.50;;;-5.17;100.00
8398;BME280;4236;54.504;9.588;2022-12-15T01:31:14;100165.03;;;-5.08;100.00
8398;BME280;4236;54.504;9.588;2022-12-15T01:33:42;100163.41;;;-4.97;100.00
8398;BME280;4236;54.504;9.588;2022-12-15T01:36:10;100159.22;;;-4.87;100.00
8398;BME280;4236;54.504;9.588;2022-12-15T01:38:39;100170.47;;;-4.76;100.00
8398;BME280;4236;54.504;9.588;2022-12-15T01:41:09;100169.06;;;-4.69;100.00
8398;BME280;4236;54.504;9.588;2022-12-15T01:43:38;100159.88;;;-4.62;100.00
8398;BME280;4236;54.504;9.588;2022-12-15T01:46:07;100170.44;;;-4.52;100.00
8398;BME280;4236;54.504;9.588;2022-12-15T01:48:39;100166.16;;;-4.42;100.00
8398;BME280;4236;54.504;9.588;2022-12-15T01:51:12;100163.72;;;-4.32;100.00
8398;BME280;4236;54.504;9.588;2022-12-15T01:53:47;100178.53;;;-4.22;100.00
8398;BME280;4236;54.504;9.588;2022-12-15T01:56:18;100174.25;;;-4.12;100.00
8398;BME280;4236;54.504;9.588;2022-12-15T01:58:48;100173.47;;;-4.01;100.00
8398;BME280;4236;54.504;9.588;2022-12-15T02:01:17;100179.72;;;-3.93;100.00
8398;BME280;4236;54.504;9.588;2022-12-15T02:03:46;100183.53;;;-3.85;100.00
8398;BME280;4236;54.504;9.588;2022-12-15T02:06:14;100180.31;;;-3.78;100.00
8398;BME280;4236;54.504;9.588;2022-12-15T02:08:45;100178.06;;;-3.71;100.00
8398;BME280;4236;54.504;9.588;2022-12-15T02:14:19;100195.13;;;-3.56;100.00
8398;BME280;4236;54.504;9.588;2022-12-15T02:17:00;100179.69;;;-3.48;100.00
8398;BME280;4236;54.504;9.588;2022-12-15T02:20:00;100178.28;;;-3.41;100.00
8398;BME280;4236;54.504;9.588;2022-12-15T02:22:50;100171.72;;;-3.36;100.00
8398;BME280;4236;54.504;9.588;2022-12-15T02:25:45;100174.78;;;-3.30;100.00
8398;BME280;4236;54.504;9.588;2022-12-15T02:28:31;100179.91;;;-3.29;100.00
8398;BME280;4236;54.504;9.588;2022-12-15T02:31:11;100187.00;;;-3.31;100.00
8398;BME280;4236;54.504;9.588;2022-12-15T02:34:04;100188.66;;;-3.30;100.00
8398;BME280;4236;54.504;9.588;2022-12-15T02:36:35;100195.53;;;-3.29;100.00
8398;BME280;4236;54.504;9.588;2022-12-15T02:39:05;100187.97;;;-3.32;100.00
8398;BME280;4236;54.504;9.588;2022-12-15T02:41:37;100186.91;;;-3.41;100.00
8398;BME280;4236;54.504;9.588;2022-12-15T02:44:09;100183.97;;;-3.47;100.00
8398;BME280;4236;54.504;9.588;2022-12-15T02:46:50;100182.09;;;-3.56;100.00
8398;BME280;4236;54.504;9.588;2022-12-15T02:49:30;100193.56;;;-3.70;100.00
8398;BME280;4236;54.504;9.588;2022-12-15T02:52:09;100192.03;;;-3.83;100.00
8398;BME280;4236;54.504;9.588;2022-12-15T02:54:53;100192.06;;;-3.95;100.00
8398;BME280;4236;54.504;9.588;2022-12-15T02:57:30;100200.91;;;-3.97;100.00
8398;BME280;4236;54.504;9.588;2022-12-15T03:00:03;100198.91;;;-3.94;100.00
8398;BME280;4236;54.504;9.588;2022-12-15T03:02:33;100203.63;;;-3.87;100.00
8398;BME280;4236;54.504;9.588;2022-12-15T03:05:04;100204.00;;;-3.81;100.00
8398;BME280;4236;54.504;9.588;2022-12-15T03:07:32;100200.81;;;-3.73;100.00
8398;BME280;4236;54.504;9.588;2022-12-15T03:10:03;100209.78;;;-3.66;100.00
8398;BME280;4236;54.504;9.588;2022-12-15T03:12:32;100200.44;;;-3.58;100.00
8398;BME280;4236;54.504;9.588;2022-12-15T03:14:59;100202.44;;;-3.50;100.00
8398;BME280;4236;54.504;9.588;2022-12-15T03:17:27;100202.66;;;-3.42;100.00
8398;BME280;4236;54.504;9.588;2022-12-15T03:19:56;100202.78;;;-3.32;100.00
8398;BME280;4236;54.504;9.588;2022-12-15T03:22:24;100202.16;;;-3.25;100.00
8398;BME280;4236;54.504;9.588;2022-12-15T03:24:51;100205.00;;;-3.17;100.00
8398;BME280;4236;54.504;9.588;2022-12-15T03:27:19;100199.31;;;-3.11;100.00
8398;BME280;4236;54.504;9.588;2022-12-15T03:29:47;100208.50;;;-3.07;100.00
8398;BME280;4236;54.504;9.588;2022-12-15T03:32:14;100212.78;;;-3.06;100.00
8398;BME280;4236;54.504;9.588;2022-12-15T03:34:42;100219.69;;;-3.05;100.00
8398;BME280;4236;54.504;9.588;2022-12-15T03:37:12;100214.69;;;-3.08;100.00
8398;BME280;4236;54.504;9.588;2022-12-15T03:39:39;100208.16;;;-3.13;100.00
8398;BME280;4236;54.504;9.588;2022-12-15T03:42:07;100207.25;;;-3.23;100.00
8398;BME280;4236;54.504;9.588;2022-12-15T03:44:34;100199.34;;;-3.33;100.00
8398;BME280;4236;54.504;9.588;2022-12-15T03:47:02;100208.81;;;-3.43;100.00
8398;BME280;4236;54.504;9.588;2022-12-15T03:49:30;100213.34;;;-3.56;100.00
8398;BME280;4236;54.504;9.588;2022-12-15T03:51:57;100219.38;;;-3.67;100.00
8398;BME280;4236;54.504;9.588;2022-12-15T03:54:26;100216.91;;;-3.79;100.00
8398;BME280;4236;54.504;9.588;2022-12-15T03:56:54;100212.41;;;-3.88;100.00
8398;BME280;4236;54.504;9.588;2022-12-15T03:59:21;100214.06;;;-3.99;100.00
8398;BME280;4236;54.504;9.588;2022-12-15T04:01:49;100207.88;;;-4.09;100.00
8398;BME280;4236;54.504;9.588;2022-12-15T04:04:17;100211.19;;;-4.18;100.00
8398;BME280;4236;54.504;9.588;2022-12-15T04:06:44;100205.63;;;-4.24;100.00
8398;BME280;4236;54.504;9.588;2022-12-15T04:09:12;100205.34;;;-4.32;100.00
8398;BME280;4236;54.504;9.588;2022-12-15T04:11:41;100203.34;;;-4.40;100.00
8398;BME280;4236;54.504;9.588;2022-12-15T04:14:09;100214.31;;;-4.48;100.00
8398;BME280;4236;54.504;9.588;2022-12-15T04:16:37;100212.50;;;-4.58;100.00
8398;BME280;4236;54.504;9.588;2022-12-15T04:19:04;100216.72;;;-4.68;100.00
8398;BME280;4236;54.504;9.588;2022-12-15T04:21:49;100209.59;;;-4.77;100.00
8398;BME280;4236;54.504;9.588;2022-12-15T04:24:17;100220.66;;;-4.86;100.00
8398;BME280;4236;54.504;9.588;2022-12-15T04:27:04;100215.41;;;-4.97;100.00
8398;BME280;4236;54.504;9.588;2022-12-15T04:29:49;100224.00;;;-5.08;100.00
8398;BME280;4236;54.504;9.588;2022-12-15T04:32:34;100231.50;;;-5.16;100.00
8398;BME280;4236;54.504;9.588;2022-12-15T04:35:20;100228.84;;;-5.27;100.00
8398;BME280;4236;54.504;9.588;2022-12-15T04:38:05;100239.88;;;-5.36;100.00
8398;BME280;4236;54.504;9.588;2022-12-15T04:40:50;100235.97;;;-5.42;100.00
8398;BME280;4236;54.504;9.588;2022-12-15T04:43:38;100245.09;;;-5.49;100.00
8398;BME280;4236;54.504;9.588;2022-12-15T04:46:23;100242.00;;;-5.54;100.00
8398;BME280;4236;54.504;9.588;2022-12-15T04:49:09;100248.34;;;-5.58;100.00
8398;BME280;4236;54.504;9.588;2022-12-15T04:51:54;100246.09;;;-5.63;100.00
8398;BME280;4236;54.504;9.588;2022-12-15T04:54:39;100251.56;;;-5.67;100.00
8398;BME280;4236;54.504;9.588;2022-12-15T04:57:24;100262.19;;;-5.70;100.00
8398;BME280;4236;54.504;9.588;2022-12-15T05:00:12;100260.63;;;-5.73;100.00
8398;BME280;4236;54.504;9.588;2022-12-15T05:03:03;100262.81;;;-5.79;100.00
8398;BME280;4236;54.504;9.588;2022-12-15T05:05:48;100256.19;;;-5.83;100.00
8398;BME280;4236;54.504;9.588;2022-12-15T05:08:33;100260.78;;;-5.87;100.00
8398;BME280;4236;54.504;9.588;2022-12-15T05:11:18;100260.97;;;-5.90;100.00
8398;BME280;4236;54.504;9.588;2022-12-15T05:14:04;100262.13;;;-5.94;100.00
8398;BME280;4236;54.504;9.588;2022-12-15T05:16:50;100265.03;;;-5.98;100.00
8398;BME280;4236;54.504;9.588;2022-12-15T05:19:35;100254.16;;;-6.03;100.00
8398;BME280;4236;54.504;9.588;2022-12-15T05:22:21;100261.38;;;-6.08;100.00
8398;BME280;4236;54.504;9.588;2022-12-15T05:25:07;100277.16;;;-6.11;100.00
8398;BME280;4236;54.504;9.588;2022-12-15T05:27:52;100285.06;;;-6.13;100.00
8398;BME280;4236;54.504;9.588;2022-12-15T05:30:37;100276.44;;;-6.13;100.00
8398;BME280;4236;54.504;9.588;2022-12-15T05:33:24;100278.31;;;-6.15;100.00
8398;BME280;4236;54.504;9.588;2022-12-15T05:35:54;100278.41;;;-6.17;100.00
8398;BME280;4236;54.504;9.588;2022-12-15T05:38:22;100291.31;;;-6.15;100.00
8398;BME280;4236;54.504;9.588;2022-12-15T05:40:50;100293.78;;;-6.14;100.00
8398;BME280;4236;54.504;9.588;2022-12-15T05:43:17;100289.50;;;-6.15;100.00
8398;BME280;4236;54.504;9.588;2022-12-15T05:45:51;100294.63;;;-6.13;100.00
8398;BME280;4236;54.504;9.588;2022-12-15T05:48:19;100297.94;;;-6.11;100.00
8398;BME280;4236;54.504;9.588;2022-12-15T05:50:48;100305.72;;;-6.11;100.00
8398;BME280;4236;54.504;9.588;2022-12-15T05:53:16;100306.56;;;-6.11;100.00
8398;BME280;4236;54.504;9.588;2022-12-15T05:55:43;100319.53;;;-6.11;100.00
8398;BME280;4236;54.504;9.588;2022-12-15T05:58:11;100316.09;;;-6.11;100.00
8398;BME280;4236;54.504;9.588;2022-12-15T06:00:38;100319.66;;;-6.12;100.00
8398;BME280;4236;54.504;9.588;2022-12-15T06:03:06;100320.66;;;-6.15;100.00
8398;BME280;4236;54.504;9.588;2022-12-15T06:05:34;100332.91;;;-6.17;100.00
8398;BME280;4236;54.504;9.588;2022-12-15T06:08:03;100338.22;;;-6.19;100.00
8398;BME280;4236;54.504;9.588;2022-12-15T06:10:31;100340.88;;;-6.20;100.00
8398;BME280;4236;54.504;9.588;2022-12-15T06:12:58;100341.94;;;-6.23;100.00
8398;BME280;4236;54.504;9.588;2022-12-15T06:15:27;100345.13;;;-6.32;100.00
8398;BME280;4236;54.504;9.588;2022-12-15T06:17:54;100345.63;;;-6.39;100.00
8398;BME280;4236;54.504;9.588;2022-12-15T06:20:22;100349.44;;;-6.45;100.00
8398;BME280;4236;54.504;9.588;2022-12-15T06:22:50;100354.91;;;-6.49;100.00
8398;BME280;4236;54.504;9.588;2022-12-15T06:25:19;100355.97;;;-6.52;100.00
8398;BME280;4236;54.504;9.588;2022-12-15T06:27:46;100354.28;;;-6.53;100.00
8398;BME280;4236;54.504;9.588;2022-12-15T06:30:14;100354.91;;;-6.49;100.00
8398;BME280;4236;54.504;9.588;2022-12-15T06:32:41;100352.84;;;-6.44;100.00
8398;BME280;4236;54.504;9.588;2022-12-15T06:35:09;100348.84;;;-6.36;100.00
8398;BME280;4236;54.504;9.588;2022-12-15T06:37:36;100351.66;;;-6.26;100.00
8398;BME280;4236;54.504;9.588;2022-12-15T06:40:05;100351.00;;;-6.15;100.00
8398;BME280;4236;54.504;9.588;2022-12-15T06:42:34;100360.56;;;-6.03;100.00
8398;BME280;4236;54.504;9.588;2022-12-15T06:45:03;100365.88;;;-5.92;100.00
8398;BME280;4236;54.504;9.588;2022-12-15T06:47:30;100381.53;;;-5.81;100.00
8398;BME280;4236;54.504;9.588;2022-12-15T06:49:58;100380.72;;;-5.69;100.00
8398;BME280;4236;54.504;9.588;2022-12-15T06:52:25;100383.53;;;-5.60;100.00
8398;BME280;4236;54.504;9.588;2022-12-15T06:54:53;100387.06;;;-5.48;100.00
8398;BME280;4236;54.504;9.588;2022-12-15T06:57:21;100386.97;;;-5.34;100.00
8398;BME280;4236;54.504;9.588;2022-12-15T06:59:50;100390.59;;;-5.24;100.00
8398;BME280;4236;54.504;9.588;2022-12-15T07:02:17;100396.81;;;-5.14;100.00
8398;BME280;4236;54.504;9.588;2022-12-15T07:04:53;100398.91;;;-5.06;100.00
8398;BME280;4236;54.504;9.588;2022-12-15T07:07:21;100403.69;;;-5.00;100.00
8398;BME280;4236;54.504;9.588;2022-12-15T07:09:49;100400.03;;;-4.97;100.00
8398;BME280;4236;54.504;9.588;2022-12-15T07:12:16;100405.16;;;-4.96;100.00
8398;BME280;4236;54.504;9.588;2022-12-15T07:14:44;100408.47;;;-4.94;100.00
8398;BME280;4236;54.504;9.588;2022-12-15T07:17:20;100405.31;;;-4.86;100.00
8398;BME280;4236;54.504;9.588;2022-12-15T07:19:47;100408.66;;;-4.84;100.00
8398;BME280;4236;54.504;9.588;2022-12-15T07:22:15;100407.28;;;-4.77;100.00
8398;BME280;4236;54.504;9.588;2022-12-15T07:24:42;100413.72;;;-4.70;100.00
8398;BME280;4236;54.504;9.588;2022-12-15T07:27:11;100418.59;;;-4.66;100.00
8398;BME280;4236;54.504;9.588;2022-12-15T07:29:39;100429.41;;;-4.59;100.00
8398;BME280;4236;54.504;9.588;2022-12-15T07:32:06;100417.00;;;-4.56;100.00
8398;BME280;4236;54.504;9.588;2022-12-15T07:34:35;100428.75;;;-4.50;100.00
8398;BME280;4236;54.504;9.588;2022-12-15T07:37:03;100435.28;;;-4.44;100.00
8398;BME280;4236;54.504;9.588;2022-12-15T07:39:30;100434.13;;;-4.40;100.00
8398;BME280;4236;54.504;9.588;2022-12-15T07:41:58;100449.41;;;-4.36;100.00
8398;BME280;4236;54.504;9.588;2022-12-15T07:44:26;100447.34;;;-4.31;100.00
8398;BME280;4236;54.504;9.588;2022-12-15T07:46:55;100451.16;;;-4.24;100.00
8398;BME280;4236;54.504;9.588;2022-12-15T07:49:22;100455.00;;;-4.17;100.00
8398;BME280;4236;54.504;9.588;2022-12-15T07:51:51;100456.22;;;-4.10;100.00
8398;BME280;4236;54.504;9.588;2022-12-15T07:54:24;100464.31;;;-4.02;100.00
8398;BME280;4236;54.504;9.588;2022-12-15T07:56:51;100467.13;;;-4.05;100.00
8398;BME280;4236;54.504;9.588;2022-12-15T07:59:19;100471.06;;;-3.99;100.00
8398;BME280;4236;54.504;9.588;2022-12-15T08:01:47;100478.56;;;-3.95;100.00
8398;BME280;4236;54.504;9.588;2022-12-15T08:04:15;100469.56;;;-3.91;100.00
8398;BME280;4236;54.504;9.588;2022-12-15T08:06:42;100479.75;;;-3.87;100.00
8398;BME280;4236;54.504;9.588;2022-12-15T08:09:11;100476.72;;;-3.81;100.00
8398;BME280;4236;54.504;9.588;2022-12-15T08:11:39;100476.25;;;-3.75;100.00
8398;BME280;4236;54.504;9.588;2022-12-15T08:14:06;100487.06;;;-3.69;100.00
8398;BME280;4236;54.504;9.588;2022-12-15T08:16:42;100487.69;;;-3.65;100.00
8398;BME280;4236;54.504;9.588;2022-12-15T08:19:11;100483.88;;;-3.61;100.00
8398;BME280;4236;54.504;9.588;2022-12-15T08:21:41;100493.63;;;-3.52;100.00
8398;BME280;4236;54.504;9.588;2022-12-15T08:24:09;100497.25;;;-3.42;100.00
8398;BME280;4236;54.504;9.588;2022-12-15T08:26:39;100498.56;;;-3.37;100.00
8398;BME280;4236;54.504;9.588;2022-12-15T08:29:10;100493.50;;;-3.27;100.00
8398;BME280;4236;54.504;9.588;2022-12-15T08:31:58;100494.94;;;-3.23;100.00
8398;BME280;4236;54.504;9.588;2022-12-15T08:34:25;100504.56;;;-3.12;100.00
8398;BME280;4236;54.504;9.588;2022-12-15T08:36:53;100490.72;;;-3.02;100.00
8398;BME280;4236;54.504;9.588;2022-12-15T08:39:20;100496.03;;;-2.92;100.00
8398;BME280;4236;54.504;9.588;2022-12-15T08:41:49;100497.34;;;-2.87;100.00
8398;BME280;4236;54.504;9.588;2022-12-15T08:44:17;100498.56;;;-2.80;100.00
8398;BME280;4236;54.504;9.588;2022-12-15T08:46:45;100504.13;;;-2.73;100.00
8398;BME280;4236;54.504;9.588;2022-12-15T08:49:12;100504.28;;;-2.63;100.00
8398;BME280;4236;54.504;9.588;2022-12-15T08:51:47;100504.50;;;-2.55;100.00
8398;BME280;4236;54.504;9.588;2022-12-15T08:54:16;100508.41;;;-2.50;100.00
8398;BME280;4236;54.504;9.588;2022-12-15T08:56:44;100512.56;;;-2.47;100.00
8398;BME280;4236;54.504;9.588;2022-12-15T08:59:13;100512.56;;;-2.47;100.00
8398;BME280;4236;54.504;9.588;2022-12-15T09:01:41;100509.84;;;-2.46;100.00
8398;BME280;4236;54.504;9.588;2022-12-15T09:04:09;100515.44;;;-2.39;100.00
8398;BME280;4236;54.504;9.588;2022-12-15T09:06:36;100511.00;;;-2.39;100.00
8398;BME280;4236;54.504;9.588;2022-12-15T09:09:06;100516.25;;;-2.28;100.00
8398;BME280;4236;54.504;9.588;2022-12-15T09:11:34;100512.91;;;-2.18;100.00
8398;BME280;4236;54.504;9.588;2022-12-15T09:14:02;100515.50;;;-2.07;100.00
8398;BME280;4236;54.504;9.588;2022-12-15T09:16:31;100512.25;;;-2.00;100.00
8398;BME280;4236;54.504;9.588;2022-12-15T09:18:59;100517.13;;;-1.95;100.00
8398;BME280;4236;54.504;9.588;2022-12-15T09:21:28;100527.03;;;-2.10;100.00
8398;BME280;4236;54.504;9.588;2022-12-15T09:23:58;100526.78;;;-2.07;100.00
8398;BME280;4236;54.504;9.588;2022-12-15T09:26:28;100525.47;;;-2.01;100.00
8398;BME280;4236;54.504;9.588;2022-12-15T09:28:56;100534.13;;;-2.01;100.00
8398;BME280;4236;54.504;9.588;2022-12-15T09:31:25;100537.44;;;-1.99;100.00
8398;BME280;4236;54.504;9.588;2022-12-15T09:33:57;100539.81;;;-1.96;100.00
8398;BME280;4236;54.504;9.588;2022-12-15T09:36:25;100537.16;;;-1.85;100.00
8398;BME280;4236;54.504;9.588;2022-12-15T09:38:53;100529.56;;;-1.77;100.00
8398;BME280;4236;54.504;9.588;2022-12-15T09:41:23;100538.31;;;-1.67;100.00
8398;BME280;4236;54.504;9.588;2022-12-15T09:43:54;100539.97;;;-1.65;100.00
8398;BME280;4236;54.504;9.588;2022-12-15T09:46:34;100546.25;;;-1.57;100.00
8398;BME280;4236;54.504;9.588;2022-12-15T09:49:11;100547.28;;;-1.48;100.00
8398;BME280;4236;54.504;9.588;2022-12-15T09:51:45;100545.50;;;-1.48;100.00
8398;BME280;4236;54.504;9.588;2022-12-15T09:54:14;100545.16;;;-1.54;100.00
8398;BME280;4236;54.504;9.588;2022-12-15T09:56:45;100553.50;;;-1.49;100.00
8398;BME280;4236;54.504;9.588;2022-12-15T09:59:25;100559.88;;;-1.42;100.00
8398;BME280;4236;54.504;9.588;2022-12-15T10:02:12;100548.78;;;-1.35;100.00
8398;BME280;4236;54.504;9.588;2022-12-15T10:04:52;100549.09;;;-1.28;100.00
8398;BME280;4236;54.504;9.588;2022-12-15T10:07:27;100551.53;;;-1.16;100.00
8398;BME280;4236;54.504;9.588;2022-12-15T10:09:57;100552.06;;;-1.01;100.00
8398;BME280;4236;54.504;9.588;2022-12-15T10:12:27;100555.78;;;-0.83;100.00
8398;BME280;4236;54.504;9.588;2022-12-15T10:15:06;100554.47;;;-0.68;100.00
8398;BME280;4236;54.504;9.588;2022-12-15T10:17:43;100558.88;;;-0.68;100.00
8398;BME280;4236;54.504;9.588;2022-12-15T10:20:17;100558.38;;;-0.62;100.00
8398;BME280;4236;54.504;9.588;2022-12-15T10:22:47;100545.16;;;-0.61;100.00
8398;BME280;4236;54.504;9.588;2022-12-15T10:25:17;100547.78;;;-0.61;100.00
8398;BME280;4236;54.504;9.588;2022-12-15T10:28:09;100563.09;;;-0.56;100.00
8398;BME280;4236;54.504;9.588;2022-12-15T10:30:49;100558.69;;;-0.56;100.00
8398;BME280;4236;54.504;9.588;2022-12-15T10:33:19;100563.84;;;-0.44;100.00
8398;BME280;4236;54.504;9.588;2022-12-15T10:35:52;100558.53;;;-0.33;100.00
8398;BME280;4236;54.504;9.588;2022-12-15T10:38:23;100555.66;;;-0.21;100.00
8398;BME280;4236;54.504;9.588;2022-12-15T10:40:53;100555.28;;;-0.16;100.00
8398;BME280;4236;54.504;9.588;2022-12-15T10:43:28;100548.56;;;-0.09;100.00
8398;BME280;4236;54.504;9.588;2022-12-15T10:46:09;100549.38;;;-0.09;100.00
8398;BME280;4236;54.504;9.588;2022-12-15T10:48:39;100554.59;;;-0.09;100.00
8398;BME280;4236;54.504;9.588;2022-12-15T10:51:17;100555.72;;;-0.11;100.00
8398;BME280;4236;54.504;9.588;2022-12-15T10:53:46;100558.22;;;-0.10;100.00
8398;BME280;4236;54.504;9.588;2022-12-15T10:56:45;100558.78;;;-0.06;100.00
8398;BME280;4236;54.504;9.588;2022-12-15T10:59:23;100553.66;;;-0.08;100.00
8398;BME280;4236;54.504;9.588;2022-12-15T11:01:51;100562.09;;;-0.04;100.00
8398;BME280;4236;54.504;9.588;2022-12-15T11:04:26;100552.03;;;0.01;100.00
8398;BME280;4236;54.504;9.588;2022-12-15T11:06:59;100550.50;;;-0.02;100.00
8398;BME280;4236;54.504;9.588;2022-12-15T11:09:31;100560.88;;;0.10;100.00
8398;BME280;4236;54.504;9.588;2022-12-15T11:12:00;100564.81;;;0.34;100.00
8398;BME280;4236;54.504;9.588;2022-12-15T11:14:46;100548.66;;;0.48;100.00
8398;BME280;4236;54.504;9.588;2022-12-15T11:17:17;100564.16;;;0.71;100.00
8398;BME280;4236;54.504;9.588;2022-12-15T11:19:52;100560.56;;;0.91;100.00
8398;BME280;4236;54.504;9.588;2022-12-15T11:22:38;100548.66;;;0.87;100.00
8398;BME280;4236;54.504;9.588;2022-12-15T11:25:18;100558.59;;;0.93;100.00
8398;BME280;4236;54.504;9.588;2022-12-15T11:27:47;100559.03;;;0.98;100.00
8398;BME280;4236;54.504;9.588;2022-12-15T11:30:18;100562.91;;;1.13;100.00
8398;BME280;4236;54.504;9.588;2022-12-15T11:32:49;100570.22;;;1.19;100.00
8398;BME280;4236;54.504;9.588;2022-12-15T11:35:24;100570.22;;;1.19;100.00
8398;BME280;4236;54.504;9.588;2022-12-15T11:38:03;100572.56;;;1.22;100.00
8398;BME280;4236;54.504;9.588;2022-12-15T11:40:37;100564.00;;;1.10;100.00
8398;BME280;4236;54.504;9.588;2022-12-15T11:43:35;100573.41;;;1.13;100.00
8398;BME280;4236;54.504;9.588;2022-12-15T11:46:20;100575.19;;;1.13;100.00
8398;BME280;4236;54.504;9.588;2022-12-15T11:49:12;100573.25;;;1.05;100.00
8398;BME280;4236;54.504;9.588;2022-12-15T11:51:51;100581.28;;;1.03;100.00
8398;BME280;4236;54.504;9.588;2022-12-15T11:54:27;100573.69;;;1.10;100.00
8398;BME280;4236;54.504;9.588;2022-12-15T11:57:01;100579.44;;;1.13;100.00
8398;BME280;4236;54.504;9.588;2022-12-15T11:59:58;100579.44;;;1.23;100.00
8398;BME280;4236;54.504;9.588;2022-12-15T12:02:39;100582.75;;;1.35;100.00
8398;BME280;4236;54.504;9.588;2022-12-15T12:05:21;100585.91;;;1.38;100.00
8398;BME280;4236;54.504;9.588;2022-12-15T12:08:00;100582.63;;;1.36;100.00
8398;BME280;4236;54.504;9.588;2022-12-15T12:10:38;100586.06;;;1.37;100.00
8398;BME280;4236;54.504;9.588;2022-12-15T12:13:19;100579.59;;;1.31;100.00
8398;BME280;4236;54.504;9.588;2022-12-15T12:15:53;100587.03;;;1.26;100.00
8398;BME280;4236;54.504;9.588;2022-12-15T12:18:26;100584.13;;;1.29;100.00
8398;BME280;4236;54.504;9.588;2022-12-15T12:21:02;100585.66;;;1.32;100.00
8398;BME280;4236;54.504;9.588;2022-12-15T12:23:35;100591.06;;;1.21;100.00
8398;BME280;4236;54.504;9.588;2022-12-15T12:26:10;100595.50;;;1.20;100.00
8398;BME280;4236;54.504;9.588;2022-12-15T12:28:44;100590.66;;;1.16;100.00
8398;BME280;4236;54.504;9.588;2022-12-15T12:31:23;100600.06;;;1.08;100.00
8398;BME280;4236;54.504;9.588;2022-12-15T12:33:54;100590.94;;;0.93;100.00
8398;BME280;4236;54.504;9.588;2022-12-15T12:36:25;100597.84;;;0.85;100.00
8398;BME280;4236;54.504;9.588;2022-12-15T12:38:54;100601.03;;;0.79;100.00
8398;BME280;4236;54.504;9.588;2022-12-15T12:41:31;100602.56;;;0.72;100.00
8398;BME280;4236;54.504;9.588;2022-12-15T12:44:07;100608.09;;;0.69;100.00
8398;BME280;4236;54.504;9.588;2022-12-15T12:46:42;100608.78;;;0.71;100.00
8398;BME280;4236;54.504;9.588;2022-12-15T12:49:18;100599.22;;;0.70;100.00
8398;BME280;4236;54.504;9.588;2022-12-15T12:51:53;100602.56;;;0.72;100.00
8398;BME280;4236;54.504;9.588;2022-12-15T12:54:42;100601.72;;;0.71;100.00
8398;BME280;4236;54.504;9.588;2022-12-15T12:57:29;100604.75;;;0.76;100.00
8398;BME280;4236;54.504;9.588;2022-12-15T13:00:00;100602.44;;;0.83;100.00
8398;BME280;4236;54.504;9.588;2022-12-15T13:02:43;100604.50;;;0.89;100.00
8398;BME280;4236;54.504;9.588;2022-12-15T13:05:27;100602.28;;;0.94;100.00
8398;BME280;4236;54.504;9.588;2022-12-15T13:14:34;100615.41;;;1.03;100.00
8398;BME280;4236;54.504;9.588;2022-12-15T13:17:13;100608.94;;;1.07;100.00
8398;BME280;4236;54.504;9.588;2022-12-15T13:20:26;100603.13;;;1.04;100.00
8398;BME280;4236;54.504;9.588;2022-12-15T13:25:40;100612.66;;;0.95;100.00
8398;BME280;4236;54.504;9.588;2022-12-15T13:28:26;100609.75;;;0.89;100.00
8398;BME280;4236;54.504;9.588;2022-12-15T13:31:29;100614.03;;;0.80;100.00
8398;BME280;4236;54.504;9.588;2022-12-15T13:34:25;100617.22;;;0.74;100.00
8398;BME280;4236;54.504;9.588;2022-12-15T13:36:58;100620.75;;;0.64;100.00
8398;BME280;4236;54.504;9.588;2022-12-15T13:42:29;100613.56;;;0.46;100.00
8398;BME280;4236;54.504;9.588;2022-12-15T13:45:31;100602.06;;;0.28;100.00
8398;BME280;4236;54.504;9.588;2022-12-15T13:48:12;100611.16;;;0.24;100.00
8398;BME280;4236;54.504;9.588;2022-12-15T13:50:46;100613.22;;;0.21;100.00
8398;BME280;4236;54.504;9.588;2022-12-15T13:53:38;100611.25;;;0.13;100.00
8398;BME280;4236;54.504;9.588;2022-12-15T13:56:22;100616.91;;;0.09;100.00
8398;BME280;4236;54.504;9.588;2022-12-15T13:58:58;100625.03;;;0.06;100.00